West Calder, United Kingdom
Current Conditions -  °F | °C
As of 6:50 AM on Wednesday 28 Jan 2015 (Local Time) from EGPH Reporting Station
Light Rain Light Rain  
Wind Chill: 31°   Ceiling: 3200
Heat Index: 41°   Visibility: 6mi
Dew Point: 37°   Wind: 24mph
Humidity: 87%   Direction: 260°W
Pressure: 29.21"   Gusts: 43mph
Location:  55.85°N, 3.57°W
Report Text: EGPH 280650Z 26021G37KT 9999 -RA FEW010 SCT020 BKN032 05/03 Q0989
Loading
Personal Weather Stations






























Interactive Weather Map New forecast layout! Learn more

10-Day Weather Forecast

Advertisements
Track Severe Weather on mobile